sensor_id;sensor_type;location;lat;lon;timestamp;P1;durP1;ratioP1;P2;durP2;ratioP2
58496;SDS011;44284;51.310;16.904;2023-02-28T00:00:28;25.20;;;12.95;;
58496;SDS011;44284;51.310;16.904;2023-02-28T00:02:54;24.73;;;12.73;;
58496;SDS011;44284;51.310;16.904;2023-02-28T00:05:22;24.98;;;12.75;;
58496;SDS011;44284;51.310;16.904;2023-02-28T00:07:49;24.13;;;13.02;;
58496;SDS011;44284;51.310;16.904;2023-02-28T00:10:16;25.05;;;13.18;;
58496;SDS011;44284;51.310;16.904;2023-02-28T00:12:47;24.77;;;13.60;;
58496;SDS011;44284;51.310;16.904;2023-02-28T00:15:14;20.63;;;12.70;;
58496;SDS011;44284;51.310;16.904;2023-02-28T00:17:40;23.13;;;13.75;;
58496;SDS011;44284;51.310;16.904;2023-02-28T00:20:06;24.95;;;12.68;;
58496;SDS011;44284;51.310;16.904;2023-02-28T00:22:44;25.75;;;13.77;;
58496;SDS011;44284;51.310;16.904;2023-02-28T00:25:11;26.57;;;13.33;;
58496;SDS011;44284;51.310;16.904;2023-02-28T00:27:38;23.20;;;12.95;;
58496;SDS011;44284;51.310;16.904;2023-02-28T00:30:05;24.52;;;14.10;;
58496;SDS011;44284;51.310;16.904;2023-02-28T00:32:33;23.20;;;13.35;;
58496;SDS011;44284;51.310;16.904;2023-02-28T00:34:59;25.52;;;12.68;;
58496;SDS011;44284;51.310;16.904;2023-02-28T00:37:25;22.52;;;12.93;;
58496;SDS011;44284;51.310;16.904;2023-02-28T00:39:51;25.38;;;12.70;;
58496;SDS011;44284;51.310;16.904;2023-02-28T00:42:17;24.67;;;13.00;;
58496;SDS011;44284;51.310;16.904;2023-02-28T00:44:43;25.52;;;13.50;;
58496;SDS011;44284;51.310;16.904;2023-02-28T00:47:10;26.13;;;13.73;;
58496;SDS011;44284;51.310;16.904;2023-02-28T00:49:36;22.98;;;12.82;;
58496;SDS011;44284;51.310;16.904;2023-02-28T00:52:02;24.90;;;12.70;;
58496;SDS011;44284;51.310;16.904;2023-02-28T00:54:28;28.98;;;14.30;;
58496;SDS011;44284;51.310;16.904;2023-02-28T00:56:54;27.17;;;13.68;;
58496;SDS011;44284;51.310;16.904;2023-02-28T00:59:20;27.73;;;14.10;;
58496;SDS011;44284;51.310;16.904;2023-02-28T01:01:46;25.88;;;13.70;;
58496;SDS011;44284;51.310;16.904;2023-02-28T01:04:13;24.17;;;12.80;;
58496;SDS011;44284;51.310;16.904;2023-02-28T01:06:39;25.90;;;14.25;;
58496;SDS011;44284;51.310;16.904;2023-02-28T01:09:06;23.20;;;13.25;;
58496;SDS011;44284;51.310;16.904;2023-02-28T01:11:32;24.67;;;13.45;;
58496;SDS011;44284;51.310;16.904;2023-02-28T01:13:59;25.88;;;13.23;;
58496;SDS011;44284;51.310;16.904;2023-02-28T01:16:25;28.10;;;13.88;;
58496;SDS011;44284;51.310;16.904;2023-02-28T01:18:51;25.92;;;14.52;;
58496;SDS011;44284;51.310;16.904;2023-02-28T01:21:18;25.75;;;14.10;;
58496;SDS011;44284;51.310;16.904;2023-02-28T01:23:45;26.63;;;15.30;;
58496;SDS011;44284;51.310;16.904;2023-02-28T01:26:15;31.15;;;16.92;;
58496;SDS011;44284;51.310;16.904;2023-02-28T01:28:41;37.15;;;17.83;;
58496;SDS011;44284;51.310;16.904;2023-02-28T01:31:08;35.72;;;18.00;;
58496;SDS011;44284;51.310;16.904;2023-02-28T01:33:34;33.30;;;19.10;;
58496;SDS011;44284;51.310;16.904;2023-02-28T01:36:01;28.67;;;15.35;;
58496;SDS011;44284;51.310;16.904;2023-02-28T01:38:28;32.33;;;17.13;;
58496;SDS011;44284;51.310;16.904;2023-02-28T01:40:54;39.15;;;20.95;;
58496;SDS011;44284;51.310;16.904;2023-02-28T01:43:22;35.63;;;19.20;;
58496;SDS011;44284;51.310;16.904;2023-02-28T01:45:48;33.08;;;18.38;;
58496;SDS011;44284;51.310;16.904;2023-02-28T01:48:14;31.48;;;17.65;;
58496;SDS011;44284;51.310;16.904;2023-02-28T01:50:42;35.28;;;18.92;;
58496;SDS011;44284;51.310;16.904;2023-02-28T01:53:10;33.92;;;19.27;;
58496;SDS011;44284;51.310;16.904;2023-02-28T01:55:38;37.58;;;20.33;;
58496;SDS011;44284;51.310;16.904;2023-02-28T01:58:05;39.45;;;19.38;;
58496;SDS011;44284;51.310;16.904;2023-02-28T02:00:34;36.03;;;20.50;;
58496;SDS011;44284;51.310;16.904;2023-02-28T02:03:06;33.28;;;19.05;;
58496;SDS011;44284;51.310;16.904;2023-02-28T02:05:34;40.17;;;20.53;;
58496;SDS011;44284;51.310;16.904;2023-02-28T02:08:03;37.63;;;20.27;;
58496;SDS011;44284;51.310;16.904;2023-02-28T02:13:02;35.88;;;19.50;;
58496;SDS011;44284;51.310;16.904;2023-02-28T02:15:33;36.63;;;20.50;;
58496;SDS011;44284;51.310;16.904;2023-02-28T02:18:43;43.47;;;20.02;;
58496;SDS011;44284;51.310;16.904;2023-02-28T02:29:01;35.40;;;19.50;;
58496;SDS011;44284;51.310;16.904;2023-02-28T02:31:47;34.47;;;19.45;;
58496;SDS011;44284;51.310;16.904;2023-02-28T02:36:48;45.08;;;21.83;;
58496;SDS011;44284;51.310;16.904;2023-02-28T02:39:38;43.13;;;21.48;;
58496;SDS011;44284;51.310;16.904;2023-02-28T02:42:15;41.85;;;21.23;;
58496;SDS011;44284;51.310;16.904;2023-02-28T02:44:45;46.10;;;20.95;;
58496;SDS011;44284;51.310;16.904;2023-02-28T02:47:15;37.13;;;20.02;;
58496;SDS011;44284;51.310;16.904;2023-02-28T02:49:43;41.10;;;20.60;;
58496;SDS011;44284;51.310;16.904;2023-02-28T02:52:12;40.55;;;20.50;;
58496;SDS011;44284;51.310;16.904;2023-02-28T02:54:41;43.45;;;22.48;;
58496;SDS011;44284;51.310;16.904;2023-02-28T02:57:13;42.22;;;21.80;;
58496;SDS011;44284;51.310;16.904;2023-02-28T02:59:41;48.30;;;23.65;;
58496;SDS011;44284;51.310;16.904;2023-02-28T03:02:08;38.05;;;20.15;;
58496;SDS011;44284;51.310;16.904;2023-02-28T03:04:40;40.67;;;22.42;;
58496;SDS011;44284;51.310;16.904;2023-02-28T03:07:07;39.28;;;19.67;;
58496;SDS011;44284;51.310;16.904;2023-02-28T03:09:33;37.88;;;19.90;;
58496;SDS011;44284;51.310;16.904;2023-02-28T03:12:03;39.03;;;20.45;;
58496;SDS011;44284;51.310;16.904;2023-02-28T03:14:36;40.40;;;20.00;;
58496;SDS011;44284;51.310;16.904;2023-02-28T03:19:58;42.53;;;20.02;;
58496;SDS011;44284;51.310;16.904;2023-02-28T03:25:05;37.70;;;20.50;;
58496;SDS011;44284;51.310;16.904;2023-02-28T03:30:22;42.95;;;22.10;;
58496;SDS011;44284;51.310;16.904;2023-02-28T03:33:10;40.72;;;20.98;;
58496;SDS011;44284;51.310;16.904;2023-02-28T03:35:42;38.40;;;19.75;;
58496;SDS011;44284;51.310;16.904;2023-02-28T03:38:33;37.30;;;18.63;;
58496;SDS011;44284;51.310;16.904;2023-02-28T03:43:41;34.92;;;18.45;;
58496;SDS011;44284;51.310;16.904;2023-02-28T03:46:10;38.33;;;18.58;;
58496;SDS011;44284;51.310;16.904;2023-02-28T03:51:02;40.30;;;20.30;;
58496;SDS011;44284;51.310;16.904;2023-02-28T03:53:52;36.22;;;20.30;;
58496;SDS011;44284;51.310;16.904;2023-02-28T03:56:31;35.58;;;19.33;;
58496;SDS011;44284;51.310;16.904;2023-02-28T03:59:05;38.42;;;19.80;;
58496;SDS011;44284;51.310;16.904;2023-02-28T04:04:02;32.33;;;18.30;;
58496;SDS011;44284;51.310;16.904;2023-02-28T04:06:29;38.10;;;18.95;;
58496;SDS011;44284;51.310;16.904;2023-02-28T04:08:56;40.92;;;19.83;;
58496;SDS011;44284;51.310;16.904;2023-02-28T04:13:54;35.17;;;18.80;;
58496;SDS011;44284;51.310;16.904;2023-02-28T04:16:20;35.38;;;19.13;;
58496;SDS011;44284;51.310;16.904;2023-02-28T04:18:46;36.25;;;18.83;;
58496;SDS011;44284;51.310;16.904;2023-02-28T04:21:13;36.55;;;19.55;;
58496;SDS011;44284;51.310;16.904;2023-02-28T04:23:39;38.72;;;20.70;;
58496;SDS011;44284;51.310;16.904;2023-02-28T04:26:05;42.03;;;21.00;;
58496;SDS011;44284;51.310;16.904;2023-02-28T04:28:31;39.00;;;19.30;;
58496;SDS011;44284;51.310;16.904;2023-02-28T04:30:59;38.08;;;19.98;;
58496;SDS011;44284;51.310;16.904;2023-02-28T04:33:25;40.53;;;21.33;;
58496;SDS011;44284;51.310;16.904;2023-02-28T04:36:04;35.97;;;19.98;;
58496;SDS011;44284;51.310;16.904;2023-02-28T04:38:37;36.83;;;19.77;;
58496;SDS011;44284;51.310;16.904;2023-02-28T04:41:04;39.28;;;18.88;;
58496;SDS011;44284;51.310;16.904;2023-02-28T04:43:30;38.15;;;20.10;;
58496;SDS011;44284;51.310;16.904;2023-02-28T04:45:57;36.10;;;20.02;;
58496;SDS011;44284;51.310;16.904;2023-02-28T04:48:24;33.92;;;18.88;;
58496;SDS011;44284;51.310;16.904;2023-02-28T04:50:50;38.78;;;19.83;;
58496;SDS011;44284;51.310;16.904;2023-02-28T04:53:17;37.97;;;19.60;;
58496;SDS011;44284;51.310;16.904;2023-02-28T04:55:43;41.75;;;20.73;;
58496;SDS011;44284;51.310;16.904;2023-02-28T04:58:09;40.97;;;21.45;;
58496;SDS011;44284;51.310;16.904;2023-02-28T05:00:35;35.05;;;19.58;;
58496;SDS011;44284;51.310;16.904;2023-02-28T05:03:01;36.83;;;20.98;;
58496;SDS011;44284;51.310;16.904;2023-02-28T05:05:27;34.67;;;19.67;;
58496;SDS011;44284;51.310;16.904;2023-02-28T05:07:53;36.85;;;20.90;;
58496;SDS011;44284;51.310;16.904;2023-02-28T05:10:20;38.30;;;20.17;;
58496;SDS011;44284;51.310;16.904;2023-02-28T05:12:46;37.05;;;20.48;;
58496;SDS011;44284;51.310;16.904;2023-02-28T05:15:13;44.33;;;20.58;;
58496;SDS011;44284;51.310;16.904;2023-02-28T05:17:39;40.70;;;20.90;;
58496;SDS011;44284;51.310;16.904;2023-02-28T05:20:06;44.50;;;23.05;;
58496;SDS011;44284;51.310;16.904;2023-02-28T05:22:32;44.33;;;21.60;;
58496;SDS011;44284;51.310;16.904;2023-02-28T05:24:58;46.60;;;24.15;;
58496;SDS011;44284;51.310;16.904;2023-02-28T05:27:24;44.95;;;23.30;;
58496;SDS011;44284;51.310;16.904;2023-02-28T05:29:50;48.38;;;23.38;;
58496;SDS011;44284;51.310;16.904;2023-02-28T05:32:16;51.78;;;24.85;;
58496;SDS011;44284;51.310;16.904;2023-02-28T05:34:42;39.63;;;22.63;;
58496;SDS011;44284;51.310;16.904;2023-02-28T05:37:11;39.25;;;22.63;;
58496;SDS011;44284;51.310;16.904;2023-02-28T05:39:38;46.20;;;22.80;;
58496;SDS011;44284;51.310;16.904;2023-02-28T05:42:04;43.13;;;23.27;;
58496;SDS011;44284;51.310;16.904;2023-02-28T05:44:30;46.08;;;23.38;;
58496;SDS011;44284;51.310;16.904;2023-02-28T05:46:56;44.22;;;23.33;;
58496;SDS011;44284;51.310;16.904;2023-02-28T05:49:22;43.22;;;23.10;;
58496;SDS011;44284;51.310;16.904;2023-02-28T05:51:48;47.53;;;23.83;;
58496;SDS011;44284;51.310;16.904;2023-02-28T05:54:14;50.40;;;25.98;;
58496;SDS011;44284;51.310;16.904;2023-02-28T05:56:40;54.28;;;24.73;;
58496;SDS011;44284;51.310;16.904;2023-02-28T05:59:09;45.45;;;24.13;;
58496;SDS011;44284;51.310;16.904;2023-02-28T06:01:37;49.15;;;24.75;;
58496;SDS011;44284;51.310;16.904;2023-02-28T06:04:04;45.88;;;24.90;;
58496;SDS011;44284;51.310;16.904;2023-02-28T06:06:30;48.75;;;25.17;;
58496;SDS011;44284;51.310;16.904;2023-02-28T06:08:59;51.70;;;25.25;;
58496;SDS011;44284;51.310;16.904;2023-02-28T06:11:25;57.20;;;27.52;;
58496;SDS011;44284;51.310;16.904;2023-02-28T06:13:55;58.53;;;29.70;;
58496;SDS011;44284;51.310;16.904;2023-02-28T06:16:22;54.70;;;27.60;;
58496;SDS011;44284;51.310;16.904;2023-02-28T06:18:48;61.13;;;28.65;;
58496;SDS011;44284;51.310;16.904;2023-02-28T06:21:14;56.38;;;27.65;;
58496;SDS011;44284;51.310;16.904;2023-02-28T06:23:40;51.45;;;25.60;;
58496;SDS011;44284;51.310;16.904;2023-02-28T06:26:06;52.97;;;24.95;;
58496;SDS011;44284;51.310;16.904;2023-02-28T06:28:32;55.60;;;27.27;;
58496;SDS011;44284;51.310;16.904;2023-02-28T06:30:58;50.30;;;25.13;;
58496;SDS011;44284;51.310;16.904;2023-02-28T06:33:24;54.47;;;27.27;;
58496;SDS011;44284;51.310;16.904;2023-02-28T06:35:50;57.55;;;28.20;;
58496;SDS011;44284;51.310;16.904;2023-02-28T06:38:17;51.80;;;26.08;;
58496;SDS011;44284;51.310;16.904;2023-02-28T06:40:43;54.50;;;26.75;;
58496;SDS011;44284;51.310;16.904;2023-02-28T06:43:09;47.75;;;26.35;;
58496;SDS011;44284;51.310;16.904;2023-02-28T06:45:42;52.58;;;26.90;;
58496;SDS011;44284;51.310;16.904;2023-02-28T06:48:08;57.92;;;27.42;;
58496;SDS011;44284;51.310;16.904;2023-02-28T06:50:35;57.00;;;28.70;;
58496;SDS011;44284;51.310;16.904;2023-02-28T06:53:02;53.15;;;28.23;;
58496;SDS011;44284;51.310;16.904;2023-02-28T06:55:28;56.13;;;29.13;;
58496;SDS011;44284;51.310;16.904;2023-02-28T06:57:54;55.45;;;28.33;;
58496;SDS011;44284;51.310;16.904;2023-02-28T07:00:20;57.83;;;29.15;;
58496;SDS011;44284;51.310;16.904;2023-02-28T07:02:46;54.95;;;27.70;;
58496;SDS011;44284;51.310;16.904;2023-02-28T07:05:12;55.25;;;27.95;;
58496;SDS011;44284;51.310;16.904;2023-02-28T07:07:39;54.33;;;27.52;;
58496;SDS011;44284;51.310;16.904;2023-02-28T07:10:09;53.95;;;25.95;;
58496;SDS011;44284;51.310;16.904;2023-02-28T07:12:36;49.70;;;26.40;;
58496;SDS011;44284;51.310;16.904;2023-02-28T07:15:02;52.92;;;27.27;;
58496;SDS011;44284;51.310;16.904;2023-02-28T07:17:28;48.95;;;25.30;;
58496;SDS011;44284;51.310;16.904;2023-02-28T07:19:54;54.80;;;25.25;;
58496;SDS011;44284;51.310;16.904;2023-02-28T07:22:21;48.92;;;24.85;;
58496;SDS011;44284;51.310;16.904;2023-02-28T07:24:47;43.47;;;23.42;;
58496;SDS011;44284;51.310;16.904;2023-02-28T07:27:13;47.42;;;23.38;;
58496;SDS011;44284;51.310;16.904;2023-02-28T07:29:48;47.05;;;24.35;;
58496;SDS011;44284;51.310;16.904;2023-02-28T07:32:14;43.42;;;23.77;;
58496;SDS011;44284;51.310;16.904;2023-02-28T07:34:40;48.25;;;24.33;;
58496;SDS011;44284;51.310;16.904;2023-02-28T07:37:06;46.70;;;24.27;;
58496;SDS011;44284;51.310;16.904;2023-02-28T07:39:33;47.85;;;25.33;;
58496;SDS011;44284;51.310;16.904;2023-02-28T07:41:59;44.22;;;25.55;;
58496;SDS011;44284;51.310;16.904;2023-02-28T07:44:25;48.15;;;25.70;;
58496;SDS011;44284;51.310;16.904;2023-02-28T07:46:51;51.55;;;27.35;;
58496;SDS011;44284;51.310;16.904;2023-02-28T07:49:18;47.22;;;26.63;;
58496;SDS011;44284;51.310;16.904;2023-02-28T07:51:44;51.72;;;27.92;;
58496;SDS011;44284;51.310;16.904;2023-02-28T07:54:10;58.72;;;29.63;;
58496;SDS011;44284;51.310;16.904;2023-02-28T07:56:36;57.25;;;30.00;;
58496;SDS011;44284;51.310;16.904;2023-02-28T07:59:02;51.78;;;28.23;;
58496;SDS011;44284;51.310;16.904;2023-02-28T08:01:28;56.20;;;28.52;;
58496;SDS011;44284;51.310;16.904;2023-02-28T08:03:54;51.90;;;26.95;;
58496;SDS011;44284;51.310;16.904;2023-02-28T08:06:22;47.20;;;26.40;;
58496;SDS011;44284;51.310;16.904;2023-02-28T08:08:49;49.97;;;25.38;;
58496;SDS011;44284;51.310;16.904;2023-02-28T08:11:16;52.38;;;27.30;;
58496;SDS011;44284;51.310;16.904;2023-02-28T08:13:43;43.03;;;24.38;;
58496;SDS011;44284;51.310;16.904;2023-02-28T08:16:09;51.88;;;25.92;;
58496;SDS011;44284;51.310;16.904;2023-02-28T08:18:35;42.53;;;22.98;;
58496;SDS011;44284;51.310;16.904;2023-02-28T08:21:08;40.78;;;23.67;;
58496;SDS011;44284;51.310;16.904;2023-02-28T08:23:34;41.45;;;22.50;;
58496;SDS011;44284;51.310;16.904;2023-02-28T08:26:00;43.60;;;22.15;;
58496;SDS011;44284;51.310;16.904;2023-02-28T08:28:27;34.65;;;20.42;;
58496;SDS011;44284;51.310;16.904;2023-02-28T08:30:53;34.83;;;18.13;;
58496;SDS011;44284;51.310;16.904;2023-02-28T08:33:19;18.98;;;11.30;;
58496;SDS011;44284;51.310;16.904;2023-02-28T08:35:45;42.50;;;20.63;;
58496;SDS011;44284;51.310;16.904;2023-02-28T08:38:11;31.42;;;16.85;;
58496;SDS011;44284;51.310;16.904;2023-02-28T08:40:37;31.40;;;16.92;;
58496;SDS011;44284;51.310;16.904;2023-02-28T08:43:03;26.70;;;16.55;;
58496;SDS011;44284;51.310;16.904;2023-02-28T08:45:29;32.33;;;16.85;;
58496;SDS011;44284;51.310;16.904;2023-02-28T08:47:55;22.30;;;12.32;;
58496;SDS011;44284;51.310;16.904;2023-02-28T08:50:22;57.47;;;20.45;;
58496;SDS011;44284;51.310;16.904;2023-02-28T08:52:48;34.78;;;15.32;;
58496;SDS011;44284;51.310;16.904;2023-02-28T08:55:14;21.95;;;12.32;;
58496;SDS011;44284;51.310;16.904;2023-02-28T08:57:40;22.40;;;12.27;;
58496;SDS011;44284;51.310;16.904;2023-02-28T09:00:06;22.42;;;12.25;;
58496;SDS011;44284;51.310;16.904;2023-02-28T09:02:33;20.20;;;12.18;;
58496;SDS011;44284;51.310;16.904;2023-02-28T09:04:59;23.85;;;12.95;;
58496;SDS011;44284;51.310;16.904;2023-02-28T09:07:25;21.70;;;11.95;;
58496;SDS011;44284;51.310;16.904;2023-02-28T09:09:51;16.80;;;8.90;;
58496;SDS011;44284;51.310;16.904;2023-02-28T09:12:24;14.40;;;8.80;;
58496;SDS011;44284;51.310;16.904;2023-02-28T09:14:50;8.65;;;5.22;;
58496;SDS011;44284;51.310;16.904;2023-02-28T09:17:17;11.68;;;5.50;;
58496;SDS011;44284;51.310;16.904;2023-02-28T09:19:43;11.98;;;5.70;;
58496;SDS011;44284;51.310;16.904;2023-02-28T09:22:10;13.52;;;6.95;;
58496;SDS011;44284;51.310;16.904;2023-02-28T09:24:36;11.32;;;6.30;;
58496;SDS011;44284;51.310;16.904;2023-02-28T09:27:03;14.95;;;7.50;;
58496;SDS011;44284;51.310;16.904;2023-02-28T09:29:29;16.20;;;8.07;;
58496;SDS011;44284;51.310;16.904;2023-02-28T09:31:55;16.70;;;9.13;;
58496;SDS011;44284;51.310;16.904;2023-02-28T09:34:24;15.40;;;9.02;;
58496;SDS011;44284;51.310;16.904;2023-02-28T09:36:50;11.93;;;7.32;;
58496;SDS011;44284;51.310;16.904;2023-02-28T09:39:23;15.30;;;7.57;;
58496;SDS011;44284;51.310;16.904;2023-02-28T09:41:52;13.00;;;7.03;;
58496;SDS011;44284;51.310;16.904;2023-02-28T09:46:45;15.63;;;7.00;;
58496;SDS011;44284;51.310;16.904;2023-02-28T09:49:12;12.20;;;6.00;;
58496;SDS011;44284;51.310;16.904;2023-02-28T09:51:45;13.07;;;6.72;;
58496;SDS011;44284;51.310;16.904;2023-02-28T09:54:18;10.25;;;5.75;;
58496;SDS011;44284;51.310;16.904;2023-02-28T09:56:53;12.93;;;5.45;;
58496;SDS011;44284;51.310;16.904;2023-02-28T10:02:16;13.43;;;5.97;;
58496;SDS011;44284;51.310;16.904;2023-02-28T10:04:51;13.80;;;7.22;;
58496;SDS011;44284;51.310;16.904;2023-02-28T10:09:52;15.02;;;7.30;;
58496;SDS011;44284;51.310;16.904;2023-02-28T10:12:18;12.57;;;6.95;;
58496;SDS011;44284;51.310;16.904;2023-02-28T10:14:46;15.82;;;7.97;;
58496;SDS011;44284;51.310;16.904;2023-02-28T10:17:17;16.63;;;9.02;;
58496;SDS011;44284;51.310;16.904;2023-02-28T10:24:55;14.65;;;8.32;;
58496;SDS011;44284;51.310;16.904;2023-02-28T10:27:28;16.30;;;8.82;;
58496;SDS011;44284;51.310;16.904;2023-02-28T10:29:56;14.15;;;8.13;;
58496;SDS011;44284;51.310;16.904;2023-02-28T10:32:23;18.33;;;9.50;;
58496;SDS011;44284;51.310;16.904;2023-02-28T10:34:54;19.15;;;10.13;;
58496;SDS011;44284;51.310;16.904;2023-02-28T10:37:22;16.10;;;9.52;;
58496;SDS011;44284;51.310;16.904;2023-02-28T10:39:49;17.55;;;10.20;;
58496;SDS011;44284;51.310;16.904;2023-02-28T10:42:26;19.88;;;10.32;;
58496;SDS011;44284;51.310;16.904;2023-02-28T10:45:06;17.77;;;10.90;;
58496;SDS011;44284;51.310;16.904;2023-02-28T10:47:33;18.40;;;10.55;;
58496;SDS011;44284;51.310;16.904;2023-02-28T10:50:01;19.90;;;11.07;;
58496;SDS011;44284;51.310;16.904;2023-02-28T10:52:40;18.20;;;10.15;;
58496;SDS011;44284;51.310;16.904;2023-02-28T10:55:20;17.95;;;9.98;;
58496;SDS011;44284;51.310;16.904;2023-02-28T10:57:47;18.23;;;10.20;;
58496;SDS011;44284;51.310;16.904;2023-02-28T11:02:39;18.48;;;10.27;;
58496;SDS011;44284;51.310;16.904;2023-02-28T11:05:29;18.75;;;10.63;;
58496;SDS011;44284;51.310;16.904;2023-02-28T11:08:04;17.20;;;10.60;;
58496;SDS011;44284;51.310;16.904;2023-02-28T11:10:31;19.45;;;11.50;;
58496;SDS011;44284;51.310;16.904;2023-02-28T11:13:01;23.15;;;11.25;;
58496;SDS011;44284;51.310;16.904;2023-02-28T11:15:29;19.27;;;10.88;;
58496;SDS011;44284;51.310;16.904;2023-02-28T11:17:57;20.70;;;11.80;;
58496;SDS011;44284;51.310;16.904;2023-02-28T11:20:25;18.42;;;10.45;;
58496;SDS011;44284;51.310;16.904;2023-02-28T11:22:52;19.92;;;10.82;;
58496;SDS011;44284;51.310;16.904;2023-02-28T11:25:26;21.17;;;10.07;;
58496;SDS011;44284;51.310;16.904;2023-02-28T11:27:56;16.75;;;9.48;;
58496;SDS011;44284;51.310;16.904;2023-02-28T11:30:23;16.23;;;9.10;;
58496;SDS011;44284;51.310;16.904;2023-02-28T11:32:50;18.98;;;9.40;;
58496;SDS011;44284;51.310;16.904;2023-02-28T11:37:54;18.35;;;9.73;;
58496;SDS011;44284;51.310;16.904;2023-02-28T11:48:23;19.13;;;10.35;;
58496;SDS011;44284;51.310;16.904;2023-02-28T11:58:17;18.85;;;11.68;;
58496;SDS011;44284;51.310;16.904;2023-02-28T12:00:54;25.85;;;13.23;;
58496;SDS011;44284;51.310;16.904;2023-02-28T12:03:31;19.13;;;11.15;;
58496;SDS011;44284;51.310;16.904;2023-02-28T12:13:32;21.88;;;10.82;;
58496;SDS011;44284;51.310;16.904;2023-02-28T12:21:08;21.52;;;11.50;;
58496;SDS011;44284;51.310;16.904;2023-02-28T12:29:11;20.63;;;11.52;;
58496;SDS011;44284;51.310;16.904;2023-02-28T12:31:40;19.58;;;11.95;;
58496;SDS011;44284;51.310;16.904;2023-02-28T12:34:09;21.13;;;12.05;;
58496;SDS011;44284;51.310;16.904;2023-02-28T12:36:36;21.27;;;12.27;;
58496;SDS011;44284;51.310;16.904;2023-02-28T12:39:14;19.63;;;11.45;;
58496;SDS011;44284;51.310;16.904;2023-02-28T12:41:42;18.40;;;11.23;;
58496;SDS011;44284;51.310;16.904;2023-02-28T12:44:16;21.05;;;11.48;;
58496;SDS011;44284;51.310;16.904;2023-02-28T12:46:51;20.73;;;11.30;;
58496;SDS011;44284;51.310;16.904;2023-02-28T12:49:19;23.50;;;12.52;;
58496;SDS011;44284;51.310;16.904;2023-02-28T12:51:59;19.88;;;12.65;;
58496;SDS011;44284;51.310;16.904;2023-02-28T13:01:52;24.25;;;13.80;;
58496;SDS011;44284;51.310;16.904;2023-02-28T13:09:20;18.95;;;12.43;;
58496;SDS011;44284;51.310;16.904;2023-02-28T13:11:47;21.98;;;14.10;;
58496;SDS011;44284;51.310;16.904;2023-02-28T13:14:30;22.55;;;13.75;;
58496;SDS011;44284;51.310;16.904;2023-02-28T13:19:35;20.50;;;12.23;;
58496;SDS011;44284;51.310;16.904;2023-02-28T13:22:03;16.20;;;10.43;;
58496;SDS011;44284;51.310;16.904;2023-02-28T13:25:04;21.90;;;10.95;;
58496;SDS011;44284;51.310;16.904;2023-02-28T13:29:49;20.67;;;11.90;;
58496;SDS011;44284;51.310;16.904;2023-02-28T13:32:19;30.60;;;16.77;;
58496;SDS011;44284;51.310;16.904;2023-02-28T13:39:45;26.70;;;15.68;;
58496;SDS011;44284;51.310;16.904;2023-02-28T13:48:01;20.05;;;12.57;;
58496;SDS011;44284;51.310;16.904;2023-02-28T13:50:27;21.77;;;12.77;;
58496;SDS011;44284;51.310;16.904;2023-02-28T14:03:28;14.93;;;8.98;;
58496;SDS011;44284;51.310;16.904;2023-02-28T14:08:35;18.77;;;9.85;;
58496;SDS011;44284;51.310;16.904;2023-02-28T14:11:05;18.25;;;10.00;;
58496;SDS011;44284;51.310;16.904;2023-02-28T14:13:50;16.35;;;10.23;;
58496;SDS011;44284;51.310;16.904;2023-02-28T14:16:17;17.13;;;9.80;;
58496;SDS011;44284;51.310;16.904;2023-02-28T14:37:42;17.67;;;10.00;;
58496;SDS011;44284;51.310;16.904;2023-02-28T14:40:16;16.92;;;10.07;;
58496;SDS011;44284;51.310;16.904;2023-02-28T14:42:46;17.83;;;10.48;;
58496;SDS011;44284;51.310;16.904;2023-02-28T14:45:19;17.15;;;9.57;;
58496;SDS011;44284;51.310;16.904;2023-02-28T14:47:46;17.95;;;9.40;;
58496;SDS011;44284;51.310;16.904;2023-02-28T14:50:20;16.30;;;10.00;;
58496;SDS011;44284;51.310;16.904;2023-02-28T14:52:46;18.50;;;9.48;;
58496;SDS011;44284;51.310;16.904;2023-02-28T14:55:14;19.13;;;10.35;;
58496;SDS011;44284;51.310;16.904;2023-02-28T14:57:50;14.98;;;8.65;;
58496;SDS011;44284;51.310;16.904;2023-02-28T15:02:44;20.75;;;12.35;;
58496;SDS011;44284;51.310;16.904;2023-02-28T15:07:45;22.50;;;12.57;;
58496;SDS011;44284;51.310;16.904;2023-02-28T15:10:17;17.67;;;10.90;;
58496;SDS011;44284;51.310;16.904;2023-02-28T15:12:46;24.73;;;13.88;;
58496;SDS011;44284;51.310;16.904;2023-02-28T15:15:18;21.75;;;12.68;;
58496;SDS011;44284;51.310;16.904;2023-02-28T15:17:46;24.13;;;13.02;;
58496;SDS011;44284;51.310;16.904;2023-02-28T15:20:17;20.92;;;11.75;;
58496;SDS011;44284;51.310;16.904;2023-02-28T15:22:44;21.77;;;12.57;;
58496;SDS011;44284;51.310;16.904;2023-02-28T15:25:13;19.10;;;11.02;;
58496;SDS011;44284;51.310;16.904;2023-02-28T15:27:47;17.90;;;10.75;;
58496;SDS011;44284;51.310;16.904;2023-02-28T15:30:19;16.67;;;10.55;;
58496;SDS011;44284;51.310;16.904;2023-02-28T15:32:47;17.35;;;10.70;;
58496;SDS011;44284;51.310;16.904;2023-02-28T15:35:28;18.98;;;11.13;;
58496;SDS011;44284;51.310;16.904;2023-02-28T15:43:26;24.02;;;13.50;;
58496;SDS011;44284;51.310;16.904;2023-02-28T15:45:55;26.30;;;13.88;;
58496;SDS011;44284;51.310;16.904;2023-02-28T15:50:52;22.42;;;12.30;;
58496;SDS011;44284;51.310;16.904;2023-02-28T15:53:23;22.30;;;12.18;;
58496;SDS011;44284;51.310;16.904;2023-02-28T15:56:00;23.88;;;13.77;;
58496;SDS011;44284;51.310;16.904;2023-02-28T15:58:26;25.10;;;14.50;;
58496;SDS011;44284;51.310;16.904;2023-02-28T16:01:00;24.70;;;13.98;;
58496;SDS011;44284;51.310;16.904;2023-02-28T16:03:27;25.52;;;14.60;;
58496;SDS011;44284;51.310;16.904;2023-02-28T16:06:12;22.13;;;12.80;;
58496;SDS011;44284;51.310;16.904;2023-02-28T16:08:46;21.58;;;13.48;;
58496;SDS011;44284;51.310;16.904;2023-02-28T16:11:13;21.80;;;12.88;;
58496;SDS011;44284;51.310;16.904;2023-02-28T16:13:40;25.48;;;14.88;;
58496;SDS011;44284;51.310;16.904;2023-02-28T16:16:06;23.48;;;13.90;;
58496;SDS011;44284;51.310;16.904;2023-02-28T16:18:32;22.23;;;14.05;;
58496;SDS011;44284;51.310;16.904;2023-02-28T16:20:58;21.67;;;13.57;;
58496;SDS011;44284;51.310;16.904;2023-02-28T16:23:24;23.23;;;14.40;;
58496;SDS011;44284;51.310;16.904;2023-02-28T16:25:50;26.00;;;14.55;;
58496;SDS011;44284;51.310;16.904;2023-02-28T16:28:18;23.75;;;13.43;;
58496;SDS011;44284;51.310;16.904;2023-02-28T16:30:45;26.38;;;15.57;;
58496;SDS011;44284;51.310;16.904;2023-02-28T16:33:11;30.05;;;16.35;;
58496;SDS011;44284;51.310;16.904;2023-02-28T16:35:37;30.13;;;16.42;;
58496;SDS011;44284;51.310;16.904;2023-02-28T16:38:03;26.67;;;15.82;;
58496;SDS011;44284;51.310;16.904;2023-02-28T16:40:29;28.73;;;16.48;;
58496;SDS011;44284;51.310;16.904;2023-02-28T16:42:59;31.75;;;18.27;;
58496;SDS011;44284;51.310;16.904;2023-02-28T16:45:26;31.90;;;18.13;;
58496;SDS011;44284;51.310;16.904;2023-02-28T16:47:53;28.20;;;17.95;;
58496;SDS011;44284;51.310;16.904;2023-02-28T16:50:21;29.15;;;18.60;;
58496;SDS011;44284;51.310;16.904;2023-02-28T16:52:47;30.17;;;17.77;;
58496;SDS011;44284;51.310;16.904;2023-02-28T16:55:14;31.90;;;18.88;;